sensor_id;sensor_type;location;lat;lon;timestamp;temperature;humidity
66873;HTU21D;53781;51.090;5.884;2022-12-18T00:00:00;-3.68;71.10
66873;HTU21D;53781;51.090;5.884;2022-12-18T00:00:16;-3.69;71.04
66873;HTU21D;53781;51.090;5.884;2022-12-18T00:00:33;-3.70;71.13
66873;HTU21D;53781;51.090;5.884;2022-12-18T00:00:48;-3.70;71.19
66873;HTU21D;53781;51.090;5.884;2022-12-18T00:01:04;-3.71;71.20
66873;HTU21D;53781;51.090;5.884;2022-12-18T00:01:23;-3.69;71.13
66873;HTU21D;53781;51.090;5.884;2022-12-18T00:01:41;-3.70;71.19
66873;HTU21D;53781;51.090;5.884;2022-12-18T00:01:58;-3.71;71.21
66873;HTU21D;53781;51.090;5.884;2022-12-18T00:02:15;-3.70;71.22
66873;HTU21D;53781;51.090;5.884;2022-12-18T00:02:30;-3.72;71.22
66873;HTU21D;53781;51.090;5.884;2022-12-18T00:02:45;-3.74;71.22
66873;HTU21D;53781;51.090;5.884;2022-12-18T00:02:59;-3.74;71.29
66873;HTU21D;53781;51.090;5.884;2022-12-18T00:03:14;-3.75;71.32
66873;HTU21D;53781;51.090;5.884;2022-12-18T00:03:29;-3.72;71.32
66873;HTU21D;53781;51.090;5.884;2022-12-18T00:03:44;-3.72;71.33
66873;HTU21D;53781;51.090;5.884;2022-12-18T00:04:02;-3.72;71.29
66873;HTU21D;53781;51.090;5.884;2022-12-18T00:04:22;-3.76;71.35
66873;HTU21D;53781;51.090;5.884;2022-12-18T00:04:37;-3.74;71.28
66873;HTU21D;53781;51.090;5.884;2022-12-18T00:04:51;-3.75;71.33
66873;HTU21D;53781;51.090;5.884;2022-12-18T00:05:06;-3.76;71.28
66873;HTU21D;53781;51.090;5.884;2022-12-18T00:05:21;-3.77;71.32
66873;HTU21D;53781;51.090;5.884;2022-12-18T00:05:36;-3.76;71.26
66873;HTU21D;53781;51.090;5.884;2022-12-18T00:05:52;-3.77;71.34
66873;HTU21D;53781;51.090;5.884;2022-12-18T00:06:08;-3.77;71.36
66873;HTU21D;53781;51.090;5.884;2022-12-18T00:06:24;-3.78;71.31
66873;HTU21D;53781;51.090;5.884;2022-12-18T00:06:39;-3.76;71.37
66873;HTU21D;53781;51.090;5.884;2022-12-18T00:06:54;-3.79;71.20
66873;HTU21D;53781;51.090;5.884;2022-12-18T00:07:09;-3.78;71.22
66873;HTU21D;53781;51.090;5.884;2022-12-18T00:07:24;-3.79;71.19
66873;HTU21D;53781;51.090;5.884;2022-12-18T00:07:39;-3.81;71.18
66873;HTU21D;53781;51.090;5.884;2022-12-18T00:07:53;-3.79;71.17
66873;HTU21D;53781;51.090;5.884;2022-12-18T00:08:08;-3.81;71.14
66873;HTU21D;53781;51.090;5.884;2022-12-18T00:08:23;-3.81;71.19
66873;HTU21D;53781;51.090;5.884;2022-12-18T00:08:38;-3.81;71.10
66873;HTU21D;53781;51.090;5.884;2022-12-18T00:08:55;-3.82;71.04
66873;HTU21D;53781;51.090;5.884;2022-12-18T00:09:10;-3.82;71.11
66873;HTU21D;53781;51.090;5.884;2022-12-18T00:09:24;-3.83;71.15
66873;HTU21D;53781;51.090;5.884;2022-12-18T00:09:39;-3.83;71.06
66873;HTU21D;53781;51.090;5.884;2022-12-18T00:09:54;-3.83;71.12
66873;HTU21D;53781;51.090;5.884;2022-12-18T00:10:09;-3.85;71.17
66873;HTU21D;53781;51.090;5.884;2022-12-18T00:10:23;-3.87;71.10
66873;HTU21D;53781;51.090;5.884;2022-12-18T00:10:38;-3.85;71.12
66873;HTU21D;53781;51.090;5.884;2022-12-18T00:10:53;-3.84;71.16
66873;HTU21D;53781;51.090;5.884;2022-12-18T00:11:11;-3.84;71.24
66873;HTU21D;53781;51.090;5.884;2022-12-18T00:11:30;-3.85;71.14
66873;HTU21D;53781;51.090;5.884;2022-12-18T00:11:45;-3.85;71.15
66873;HTU21D;53781;51.090;5.884;2022-12-18T00:11:59;-3.84;71.20
66873;HTU21D;53781;51.090;5.884;2022-12-18T00:12:14;-3.84;71.13
66873;HTU21D;53781;51.090;5.884;2022-12-18T00:12:29;-3.84;71.27
66873;HTU21D;53781;51.090;5.884;2022-12-18T00:12:44;-3.85;71.16
66873;HTU21D;53781;51.090;5.884;2022-12-18T00:12:58;-3.84;71.31
66873;HTU21D;53781;51.090;5.884;2022-12-18T00:13:13;-3.85;71.26
66873;HTU21D;53781;51.090;5.884;2022-12-18T00:13:28;-3.85;71.29
66873;HTU21D;53781;51.090;5.884;2022-12-18T00:13:43;-3.86;71.16
66873;HTU21D;53781;51.090;5.884;2022-12-18T00:13:59;-3.87;71.09
66873;HTU21D;53781;51.090;5.884;2022-12-18T00:14:14;-3.87;71.07
66873;HTU21D;53781;51.090;5.884;2022-12-18T00:14:29;-3.87;71.13
66873;HTU21D;53781;51.090;5.884;2022-12-18T00:14:44;-3.86;71.01
66873;HTU21D;53781;51.090;5.884;2022-12-18T00:14:59;-3.87;71.04
66873;HTU21D;53781;51.090;5.884;2022-12-18T00:15:14;-3.86;71.01
66873;HTU21D;53781;51.090;5.884;2022-12-18T00:15:28;-3.87;71.00
66873;HTU21D;53781;51.090;5.884;2022-12-18T00:15:43;-3.90;70.90
66873;HTU21D;53781;51.090;5.884;2022-12-18T00:16:07;-3.86;70.85
66873;HTU21D;53781;51.090;5.884;2022-12-18T00:16:25;-3.89;70.81
66873;HTU21D;53781;51.090;5.884;2022-12-18T00:16:43;-3.90;70.87
66873;HTU21D;53781;51.090;5.884;2022-12-18T00:16:58;-3.89;70.84
66873;HTU21D;53781;51.090;5.884;2022-12-18T00:17:15;-3.89;70.79
66873;HTU21D;53781;51.090;5.884;2022-12-18T00:17:29;-3.91;70.77
66873;HTU21D;53781;51.090;5.884;2022-12-18T00:17:44;-3.89;70.80
66873;HTU21D;53781;51.090;5.884;2022-12-18T00:17:59;-3.90;70.83
66873;HTU21D;53781;51.090;5.884;2022-12-18T00:18:14;-3.90;70.83
66873;HTU21D;53781;51.090;5.884;2022-12-18T00:18:28;-3.91;70.84
66873;HTU21D;53781;51.090;5.884;2022-12-18T00:18:43;-3.90;70.73
66873;HTU21D;53781;51.090;5.884;2022-12-18T00:18:59;-3.91;70.75
66873;HTU21D;53781;51.090;5.884;2022-12-18T00:19:14;-3.91;70.74
66873;HTU21D;53781;51.090;5.884;2022-12-18T00:19:29;-3.91;70.71
66873;HTU21D;53781;51.090;5.884;2022-12-18T00:19:44;-3.91;70.75
66873;HTU21D;53781;51.090;5.884;2022-12-18T00:19:59;-3.90;70.73
66873;HTU21D;53781;51.090;5.884;2022-12-18T00:20:13;-3.92;70.79
66873;HTU21D;53781;51.090;5.884;2022-12-18T00:20:28;-3.92;70.67
66873;HTU21D;53781;51.090;5.884;2022-12-18T00:20:43;-3.90;70.69
66873;HTU21D;53781;51.090;5.884;2022-12-18T00:21:03;-3.95;70.72
66873;HTU21D;53781;51.090;5.884;2022-12-18T00:21:19;-3.94;70.74
66873;HTU21D;53781;51.090;5.884;2022-12-18T00:21:34;-3.93;70.80
66873;HTU21D;53781;51.090;5.884;2022-12-18T00:21:49;-3.93;70.74
66873;HTU21D;53781;51.090;5.884;2022-12-18T00:22:04;-3.94;70.74
66873;HTU21D;53781;51.090;5.884;2022-12-18T00:22:19;-3.96;70.68
66873;HTU21D;53781;51.090;5.884;2022-12-18T00:22:34;-3.94;70.68
66873;HTU21D;53781;51.090;5.884;2022-12-18T00:22:48;-3.96;70.67
66873;HTU21D;53781;51.090;5.884;2022-12-18T00:23:04;-3.95;70.63
66873;HTU21D;53781;51.090;5.884;2022-12-18T00:23:19;-3.96;70.61
66873;HTU21D;53781;51.090;5.884;2022-12-18T00:23:36;-3.96;70.55
66873;HTU21D;53781;51.090;5.884;2022-12-18T00:23:53;-3.96;70.62
66873;HTU21D;53781;51.090;5.884;2022-12-18T00:24:08;-3.95;70.65
66873;HTU21D;53781;51.090;5.884;2022-12-18T00:24:23;-3.98;70.70
66873;HTU21D;53781;51.090;5.884;2022-12-18T00:24:38;-3.95;70.61
66873;HTU21D;53781;51.090;5.884;2022-12-18T00:24:53;-3.96;70.61
66873;HTU21D;53781;51.090;5.884;2022-12-18T00:25:08;-3.96;70.55
66873;HTU21D;53781;51.090;5.884;2022-12-18T00:25:23;-3.96;70.58
66873;HTU21D;53781;51.090;5.884;2022-12-18T00:25:37;-3.95;70.52
66873;HTU21D;53781;51.090;5.884;2022-12-18T00:25:53;-3.97;70.61
66873;HTU21D;53781;51.090;5.884;2022-12-18T00:26:12;-3.96;70.68
66873;HTU21D;53781;51.090;5.884;2022-12-18T00:26:30;-3.97;70.60
66873;HTU21D;53781;51.090;5.884;2022-12-18T00:26:48;-3.95;70.64
66873;HTU21D;53781;51.090;5.884;2022-12-18T00:27:03;-3.95;70.68
66873;HTU21D;53781;51.090;5.884;2022-12-18T00:27:18;-3.94;70.71
66873;HTU21D;53781;51.090;5.884;2022-12-18T00:27:32;-3.94;70.74
66873;HTU21D;53781;51.090;5.884;2022-12-18T00:27:47;-3.93;70.77
66873;HTU21D;53781;51.090;5.884;2022-12-18T00:28:03;-3.93;70.81
66873;HTU21D;53781;51.090;5.884;2022-12-18T00:28:18;-3.84;70.77
66873;HTU21D;53781;51.090;5.884;2022-12-18T00:28:34;-3.85;70.84
66873;HTU21D;53781;51.090;5.884;2022-12-18T00:28:49;-3.86;70.87
66873;HTU21D;53781;51.090;5.884;2022-12-18T00:29:12;-3.90;70.93
66873;HTU21D;53781;51.090;5.884;2022-12-18T00:29:28;-3.86;70.98
66873;HTU21D;53781;51.090;5.884;2022-12-18T00:29:43;-3.87;71.03
66873;HTU21D;53781;51.090;5.884;2022-12-18T00:29:58;-3.87;71.00
66873;HTU21D;53781;51.090;5.884;2022-12-18T00:30:13;-3.86;71.06
66873;HTU21D;53781;51.090;5.884;2022-12-18T00:30:27;-3.89;71.07
66873;HTU21D;53781;51.090;5.884;2022-12-18T00:30:43;-3.87;71.03
66873;HTU21D;53781;51.090;5.884;2022-12-18T00:31:24;-3.87;71.00
66873;HTU21D;53781;51.090;5.884;2022-12-18T00:31:42;-3.85;71.03
66873;HTU21D;53781;51.090;5.884;2022-12-18T00:31:57;-3.87;71.05
66873;HTU21D;53781;51.090;5.884;2022-12-18T00:32:12;-3.86;70.98
66873;HTU21D;53781;51.090;5.884;2022-12-18T00:32:27;-3.86;70.95
66873;HTU21D;53781;51.090;5.884;2022-12-18T00:32:42;-3.87;70.93
66873;HTU21D;53781;51.090;5.884;2022-12-18T00:32:57;-3.86;70.91
66873;HTU21D;53781;51.090;5.884;2022-12-18T00:33:14;-3.87;70.91
66873;HTU21D;53781;51.090;5.884;2022-12-18T00:33:28;-3.87;70.97
66873;HTU21D;53781;51.090;5.884;2022-12-18T00:33:43;-3.86;70.90
66873;HTU21D;53781;51.090;5.884;2022-12-18T00:33:58;-3.86;70.94
66873;HTU21D;53781;51.090;5.884;2022-12-18T00:34:13;-3.87;71.02
66873;HTU21D;53781;51.090;5.884;2022-12-18T00:34:29;-3.87;71.03
66873;HTU21D;53781;51.090;5.884;2022-12-18T00:34:43;-3.85;71.05
66873;HTU21D;53781;51.090;5.884;2022-12-18T00:34:58;-3.87;71.08
66873;HTU21D;53781;51.090;5.884;2022-12-18T00:35:13;-3.86;71.09
66873;HTU21D;53781;51.090;5.884;2022-12-18T00:35:27;-3.86;71.11
66873;HTU21D;53781;51.090;5.884;2022-12-18T00:35:42;-3.87;71.18
66873;HTU21D;53781;51.090;5.884;2022-12-18T00:36:04;-3.89;71.11
66873;HTU21D;53781;51.090;5.884;2022-12-18T00:36:22;-3.85;70.95
66873;HTU21D;53781;51.090;5.884;2022-12-18T00:36:41;-3.89;70.93
66873;HTU21D;53781;51.090;5.884;2022-12-18T00:36:56;-3.89;70.88
66873;HTU21D;53781;51.090;5.884;2022-12-18T00:37:10;-3.87;70.78
66873;HTU21D;53781;51.090;5.884;2022-12-18T00:37:25;-3.87;70.82
66873;HTU21D;53781;51.090;5.884;2022-12-18T00:37:40;-3.91;70.86
66873;HTU21D;53781;51.090;5.884;2022-12-18T00:37:54;-3.90;70.81
66873;HTU21D;53781;51.090;5.884;2022-12-18T00:38:11;-3.90;70.75
66873;HTU21D;53781;51.090;5.884;2022-12-18T00:38:26;-3.92;70.80
66873;HTU21D;53781;51.090;5.884;2022-12-18T00:38:41;-3.93;70.73
66873;HTU21D;53781;51.090;5.884;2022-12-18T00:38:59;-3.93;70.80
66873;HTU21D;53781;51.090;5.884;2022-12-18T00:39:14;-3.92;70.73
66873;HTU21D;53781;51.090;5.884;2022-12-18T00:39:32;-3.93;70.74
66873;HTU21D;53781;51.090;5.884;2022-12-18T00:39:48;-3.94;70.75
66873;HTU21D;53781;51.090;5.884;2022-12-18T00:40:03;-3.95;70.71
66873;HTU21D;53781;51.090;5.884;2022-12-18T00:40:19;-3.95;70.65
66873;HTU21D;53781;51.090;5.884;2022-12-18T00:40:33;-3.94;70.65
66873;HTU21D;53781;51.090;5.884;2022-12-18T00:40:48;-3.95;70.64
66873;HTU21D;53781;51.090;5.884;2022-12-18T00:41:03;-3.95;70.67
66873;HTU21D;53781;51.090;5.884;2022-12-18T00:41:18;-3.95;70.77
66873;HTU21D;53781;51.090;5.884;2022-12-18T00:41:53;-3.96;70.77
66873;HTU21D;53781;51.090;5.884;2022-12-18T00:42:26;-3.97;70.82
66873;HTU21D;53781;51.090;5.884;2022-12-18T00:43:00;-3.94;70.81
66873;HTU21D;53781;51.090;5.884;2022-12-18T00:43:15;-3.97;70.76
66873;HTU21D;53781;51.090;5.884;2022-12-18T00:43:29;-3.97;70.80
66873;HTU21D;53781;51.090;5.884;2022-12-18T00:43:44;-3.95;70.77
66873;HTU21D;53781;51.090;5.884;2022-12-18T00:43:59;-3.95;70.79
66873;HTU21D;53781;51.090;5.884;2022-12-18T00:44:16;-3.96;70.74
66873;HTU21D;53781;51.090;5.884;2022-12-18T00:44:31;-3.96;70.77
66873;HTU21D;53781;51.090;5.884;2022-12-18T00:44:46;-3.96;70.77
66873;HTU21D;53781;51.090;5.884;2022-12-18T00:45:01;-3.96;70.68
66873;HTU21D;53781;51.090;5.884;2022-12-18T00:45:16;-3.96;70.75
66873;HTU21D;53781;51.090;5.884;2022-12-18T00:45:31;-3.97;70.77
66873;HTU21D;53781;51.090;5.884;2022-12-18T00:45:45;-3.98;70.77
66873;HTU21D;53781;51.090;5.884;2022-12-18T00:46:00;-3.96;70.71
66873;HTU21D;53781;51.090;5.884;2022-12-18T00:46:15;-3.98;70.72
66873;HTU21D;53781;51.090;5.884;2022-12-18T00:46:30;-4.00;70.78
66873;HTU21D;53781;51.090;5.884;2022-12-18T00:46:47;-3.98;70.83
66873;HTU21D;53781;51.090;5.884;2022-12-18T00:47:02;-3.98;70.87
66873;HTU21D;53781;51.090;5.884;2022-12-18T00:47:17;-3.99;70.86
66873;HTU21D;53781;51.090;5.884;2022-12-18T00:47:31;-4.00;70.86
66873;HTU21D;53781;51.090;5.884;2022-12-18T00:47:46;-4.00;70.81
66873;HTU21D;53781;51.090;5.884;2022-12-18T00:48:01;-4.00;70.81
66873;HTU21D;53781;51.090;5.884;2022-12-18T00:48:16;-4.00;70.81
66873;HTU21D;53781;51.090;5.884;2022-12-18T00:48:31;-4.01;70.84
66873;HTU21D;53781;51.090;5.884;2022-12-18T00:48:46;-4.01;70.84
66873;HTU21D;53781;51.090;5.884;2022-12-18T00:49:01;-4.01;70.80
66873;HTU21D;53781;51.090;5.884;2022-12-18T00:49:18;-4.01;70.92
66873;HTU21D;53781;51.090;5.884;2022-12-18T00:49:33;-4.00;70.78
66873;HTU21D;53781;51.090;5.884;2022-12-18T00:49:48;-4.00;70.92
66873;HTU21D;53781;51.090;5.884;2022-12-18T00:50:03;-4.00;70.99
66873;HTU21D;53781;51.090;5.884;2022-12-18T00:50:18;-4.01;70.95
66873;HTU21D;53781;51.090;5.884;2022-12-18T00:50:33;-4.02;70.97
66873;HTU21D;53781;51.090;5.884;2022-12-18T00:50:50;-4.01;70.99
66873;HTU21D;53781;51.090;5.884;2022-12-18T00:51:05;-4.01;71.00
66873;HTU21D;53781;51.090;5.884;2022-12-18T00:51:21;-4.02;71.04
66873;HTU21D;53781;51.090;5.884;2022-12-18T00:51:35;-4.01;71.06
66873;HTU21D;53781;51.090;5.884;2022-12-18T00:51:50;-4.02;71.10
66873;HTU21D;53781;51.090;5.884;2022-12-18T00:52:05;-4.01;71.08
66873;HTU21D;53781;51.090;5.884;2022-12-18T00:52:20;-3.99;71.13
66873;HTU21D;53781;51.090;5.884;2022-12-18T00:52:34;-4.00;71.18
66873;HTU21D;53781;51.090;5.884;2022-12-18T00:52:49;-4.01;71.22
66873;HTU21D;53781;51.090;5.884;2022-12-18T00:53:04;-4.01;71.09
66873;HTU21D;53781;51.090;5.884;2022-12-18T00:53:19;-4.00;71.17
66873;HTU21D;53781;51.090;5.884;2022-12-18T00:53:34;-3.98;71.18
66873;HTU21D;53781;51.090;5.884;2022-12-18T00:53:48;-3.98;71.24
66873;HTU21D;53781;51.090;5.884;2022-12-18T00:54:03;-3.97;71.22
66873;HTU21D;53781;51.090;5.884;2022-12-18T00:54:19;-3.97;71.18
66873;HTU21D;53781;51.090;5.884;2022-12-18T00:54:33;-3.97;71.29
66873;HTU21D;53781;51.090;5.884;2022-12-18T00:54:48;-3.95;71.38
66873;HTU21D;53781;51.090;5.884;2022-12-18T00:55:03;-3.96;71.41
66873;HTU21D;53781;51.090;5.884;2022-12-18T00:55:18;-3.95;71.35
66873;HTU21D;53781;51.090;5.884;2022-12-18T00:55:37;-3.94;71.32
66873;HTU21D;53781;51.090;5.884;2022-12-18T00:55:52;-3.94;71.31
66873;HTU21D;53781;51.090;5.884;2022-12-18T00:56:07;-3.91;71.34
66873;HTU21D;53781;51.090;5.884;2022-12-18T00:56:22;-3.93;71.24
66873;HTU21D;53781;51.090;5.884;2022-12-18T00:56:39;-3.94;71.32
66873;HTU21D;53781;51.090;5.884;2022-12-18T00:56:53;-3.92;71.26
66873;HTU21D;53781;51.090;5.884;2022-12-18T00:57:09;-3.94;71.20
66873;HTU21D;53781;51.090;5.884;2022-12-18T00:57:24;-3.91;71.22
66873;HTU21D;53781;51.090;5.884;2022-12-18T00:57:39;-3.91;71.30
66873;HTU21D;53781;51.090;5.884;2022-12-18T00:57:54;-3.92;71.32
66873;HTU21D;53781;51.090;5.884;2022-12-18T00:58:10;-3.91;71.16
66873;HTU21D;53781;51.090;5.884;2022-12-18T00:58:25;-3.92;71.24
66873;HTU21D;53781;51.090;5.884;2022-12-18T00:58:39;-3.90;71.22
66873;HTU21D;53781;51.090;5.884;2022-12-18T00:58:54;-3.91;71.26
66873;HTU21D;53781;51.090;5.884;2022-12-18T00:59:09;-3.91;71.20
66873;HTU21D;53781;51.090;5.884;2022-12-18T00:59:23;-3.90;71.27
66873;HTU21D;53781;51.090;5.884;2022-12-18T00:59:39;-3.90;71.21
66873;HTU21D;53781;51.090;5.884;2022-12-18T00:59:53;-3.90;71.15
66873;HTU21D;53781;51.090;5.884;2022-12-18T01:00:12;-3.87;71.26
66873;HTU21D;53781;51.090;5.884;2022-12-18T01:00:26;-3.90;71.23
66873;HTU21D;53781;51.090;5.884;2022-12-18T01:00:42;-3.91;71.34
66873;HTU21D;53781;51.090;5.884;2022-12-18T01:00:59;-3.90;71.21
66873;HTU21D;53781;51.090;5.884;2022-12-18T01:01:14;-3.89;71.35
66873;HTU21D;53781;51.090;5.884;2022-12-18T01:01:29;-3.87;71.35
66873;HTU21D;53781;51.090;5.884;2022-12-18T01:01:43;-3.90;71.28
66873;HTU21D;53781;51.090;5.884;2022-12-18T01:01:59;-3.89;71.28
66873;HTU21D;53781;51.090;5.884;2022-12-18T01:02:13;-3.91;71.35
66873;HTU21D;53781;51.090;5.884;2022-12-18T01:02:28;-3.89;71.43
66873;HTU21D;53781;51.090;5.884;2022-12-18T01:02:43;-3.87;71.39
66873;HTU21D;53781;51.090;5.884;2022-12-18T01:02:57;-3.87;71.42
66873;HTU21D;53781;51.090;5.884;2022-12-18T01:03:13;-3.86;71.45
66873;HTU21D;53781;51.090;5.884;2022-12-18T01:03:28;-3.87;71.46
66873;HTU21D;53781;51.090;5.884;2022-12-18T01:03:43;-3.86;71.44
66873;HTU21D;53781;51.090;5.884;2022-12-18T01:04:02;-3.86;71.47
66873;HTU21D;53781;51.090;5.884;2022-12-18T01:04:17;-3.86;71.52
66873;HTU21D;53781;51.090;5.884;2022-12-18T01:04:34;-3.85;71.53
66873;HTU21D;53781;51.090;5.884;2022-12-18T01:04:48;-3.84;71.51
66873;HTU21D;53781;51.090;5.884;2022-12-18T01:05:08;-3.83;71.50
66873;HTU21D;53781;51.090;5.884;2022-12-18T01:05:23;-3.84;71.48
66873;HTU21D;53781;51.090;5.884;2022-12-18T01:05:40;-3.84;71.51
66873;HTU21D;53781;51.090;5.884;2022-12-18T01:05:55;-3.82;71.53
66873;HTU21D;53781;51.090;5.884;2022-12-18T01:06:12;-3.82;71.61
66873;HTU21D;53781;51.090;5.884;2022-12-18T01:06:27;-3.83;71.59
66873;HTU21D;53781;51.090;5.884;2022-12-18T01:06:42;-3.83;71.59
66873;HTU21D;53781;51.090;5.884;2022-12-18T01:06:58;-3.81;71.58
66873;HTU21D;53781;51.090;5.884;2022-12-18T01:07:12;-3.81;71.55
66873;HTU21D;53781;51.090;5.884;2022-12-18T01:07:27;-3.83;71.53
66873;HTU21D;53781;51.090;5.884;2022-12-18T01:07:42;-3.83;71.59
66873;HTU21D;53781;51.090;5.884;2022-12-18T01:07:57;-3.83;71.56
66873;HTU21D;53781;51.090;5.884;2022-12-18T01:08:12;-3.80;71.56
66873;HTU21D;53781;51.090;5.884;2022-12-18T01:08:27;-3.81;71.55
66873;HTU21D;53781;51.090;5.884;2022-12-18T01:08:42;-3.82;71.51
66873;HTU21D;53781;51.090;5.884;2022-12-18T01:09:00;-3.81;71.55
66873;HTU21D;53781;51.090;5.884;2022-12-18T01:09:15;-3.81;71.60
66873;HTU21D;53781;51.090;5.884;2022-12-18T01:09:30;-3.81;71.74
66873;HTU21D;53781;51.090;5.884;2022-12-18T01:09:45;-3.80;71.75
66873;HTU21D;53781;51.090;5.884;2022-12-18T01:09:59;-3.80;71.71
66873;HTU21D;53781;51.090;5.884;2022-12-18T01:10:14;-3.78;71.75
66873;HTU21D;53781;51.090;5.884;2022-12-18T01:10:29;-3.79;71.78
66873;HTU21D;53781;51.090;5.884;2022-12-18T01:10:45;-3.79;71.80
66873;HTU21D;53781;51.090;5.884;2022-12-18T01:11:06;-3.77;71.87
66873;HTU21D;53781;51.090;5.884;2022-12-18T01:11:21;-3.78;71.87
66873;HTU21D;53781;51.090;5.884;2022-12-18T01:11:36;-3.77;71.98
66873;HTU21D;53781;51.090;5.884;2022-12-18T01:11:52;-3.76;71.96
66873;HTU21D;53781;51.090;5.884;2022-12-18T01:12:07;-3.75;72.02
66873;HTU21D;53781;51.090;5.884;2022-12-18T01:12:21;-3.74;72.02
66873;HTU21D;53781;51.090;5.884;2022-12-18T01:12:38;-3.76;72.05
66873;HTU21D;53781;51.090;5.884;2022-12-18T01:12:53;-3.72;72.06
66873;HTU21D;53781;51.090;5.884;2022-12-18T01:13:08;-3.74;72.11
66873;HTU21D;53781;51.090;5.884;2022-12-18T01:13:23;-3.75;72.13
66873;HTU21D;53781;51.090;5.884;2022-12-18T01:13:39;-3.74;72.22
66873;HTU21D;53781;51.090;5.884;2022-12-18T01:13:54;-3.74;72.17
66873;HTU21D;53781;51.090;5.884;2022-12-18T01:14:10;-3.71;72.23
66873;HTU21D;53781;51.090;5.884;2022-12-18T01:14:26;-3.70;72.28
66873;HTU21D;53781;51.090;5.884;2022-12-18T01:14:41;-3.70;72.22
66873;HTU21D;53781;51.090;5.884;2022-12-18T01:14:56;-3.70;72.20
66873;HTU21D;53781;51.090;5.884;2022-12-18T01:15:13;-3.69;72.33
66873;HTU21D;53781;51.090;5.884;2022-12-18T01:15:28;-3.69;72.31
66873;HTU21D;53781;51.090;5.884;2022-12-18T01:15:49;-3.68;72.28
66873;HTU21D;53781;51.090;5.884;2022-12-18T01:16:05;-3.70;72.38
66873;HTU21D;53781;51.090;5.884;2022-12-18T01:16:23;-3.67;72.38
66873;HTU21D;53781;51.090;5.884;2022-12-18T01:16:38;-3.66;72.47
66873;HTU21D;53781;51.090;5.884;2022-12-18T01:16:53;-3.68;72.47
66873;HTU21D;53781;51.090;5.884;2022-12-18T01:17:07;-3.65;72.52
66873;HTU21D;53781;51.090;5.884;2022-12-18T01:17:22;-3.66;72.42
66873;HTU21D;53781;51.090;5.884;2022-12-18T01:17:37;-3.64;72.52
66873;HTU21D;53781;51.090;5.884;2022-12-18T01:17:52;-3.66;72.46
66873;HTU21D;53781;51.090;5.884;2022-12-18T01:18:07;-3.65;72.45
66873;HTU21D;53781;51.090;5.884;2022-12-18T01:18:22;-3.65;72.48
66873;HTU21D;53781;51.090;5.884;2022-12-18T01:18:38;-3.65;72.51
66873;HTU21D;53781;51.090;5.884;2022-12-18T01:18:54;-3.65;72.51
66873;HTU21D;53781;51.090;5.884;2022-12-18T01:19:09;-3.62;72.55
66873;HTU21D;53781;51.090;5.884;2022-12-18T01:19:23;-3.61;72.55
66873;HTU21D;53781;51.090;5.884;2022-12-18T01:19:38;-3.61;72.51
66873;HTU21D;53781;51.090;5.884;2022-12-18T01:19:53;-3.62;72.51
66873;HTU21D;53781;51.090;5.884;2022-12-18T01:20:09;-3.62;72.48
66873;HTU21D;53781;51.090;5.884;2022-12-18T01:20:24;-3.61;72.50
66873;HTU21D;53781;51.090;5.884;2022-12-18T01:20:39;-3.60;72.51
66873;HTU21D;53781;51.090;5.884;2022-12-18T01:20:54;-3.60;72.45
66873;HTU21D;53781;51.090;5.884;2022-12-18T01:21:12;-3.58;72.35
66873;HTU21D;53781;51.090;5.884;2022-12-18T01:21:27;-3.58;72.39
66873;HTU21D;53781;51.090;5.884;2022-12-18T01:21:42;-3.56;72.33
66873;HTU21D;53781;51.090;5.884;2022-12-18T01:21:57;-3.58;72.31
66873;HTU21D;53781;51.090;5.884;2022-12-18T01:22:12;-3.58;72.26
66873;HTU21D;53781;51.090;5.884;2022-12-18T01:22:26;-3.58;72.33
66873;HTU21D;53781;51.090;5.884;2022-12-18T01:22:41;-3.58;72.25
66873;HTU21D;53781;51.090;5.884;2022-12-18T01:22:56;-3.56;72.20
66873;HTU21D;53781;51.090;5.884;2022-12-18T01:23:11;-3.56;72.24
66873;HTU21D;53781;51.090;5.884;2022-12-18T01:23:25;-3.58;72.33
66873;HTU21D;53781;51.090;5.884;2022-12-18T01:23:40;-3.58;72.26
66873;HTU21D;53781;51.090;5.884;2022-12-18T01:23:56;-3.57;72.26
66873;HTU21D;53781;51.090;5.884;2022-12-18T01:24:12;-3.57;72.27
66873;HTU21D;53781;51.090;5.884;2022-12-18T01:24:26;-3.60;72.21
66873;HTU21D;53781;51.090;5.884;2022-12-18T01:24:41;-3.60;72.25
66873;HTU21D;53781;51.090;5.884;2022-12-18T01:24:56;-3.58;72.22
66873;HTU21D;53781;51.090;5.884;2022-12-18T01:25:11;-3.57;72.15
66873;HTU21D;53781;51.090;5.884;2022-12-18T01:25:25;-3.60;72.20
66873;HTU21D;53781;51.090;5.884;2022-12-18T01:25:40;-3.60;72.21
66873;HTU21D;53781;51.090;5.884;2022-12-18T01:25:58;-3.58;72.15
66873;HTU21D;53781;51.090;5.884;2022-12-18T01:26:16;-3.60;72.25
66873;HTU21D;53781;51.090;5.884;2022-12-18T01:26:31;-3.60;72.24
66873;HTU21D;53781;51.090;5.884;2022-12-18T01:26:46;-3.57;72.26
66873;HTU21D;53781;51.090;5.884;2022-12-18T01:27:02;-3.58;72.26
66873;HTU21D;53781;51.090;5.884;2022-12-18T01:27:17;-3.57;72.22
66873;HTU21D;53781;51.090;5.884;2022-12-18T01:27:33;-3.60;72.25
66873;HTU21D;53781;51.090;5.884;2022-12-18T01:27:48;-3.60;72.22
66873;HTU21D;53781;51.090;5.884;2022-12-18T01:28:03;-3.57;72.22
66873;HTU21D;53781;51.090;5.884;2022-12-18T01:28:20;-3.57;72.11
66873;HTU21D;53781;51.090;5.884;2022-12-18T01:28:35;-3.57;72.16
66873;HTU21D;53781;51.090;5.884;2022-12-18T01:28:50;-3.58;72.04
66873;HTU21D;53781;51.090;5.884;2022-12-18T01:29:05;-3.57;72.04
66873;HTU21D;53781;51.090;5.884;2022-12-18T01:29:20;-3.57;72.01
66873;HTU21D;53781;51.090;5.884;2022-12-18T01:29:34;-3.58;71.94
66873;HTU21D;53781;51.090;5.884;2022-12-18T01:29:49;-3.60;71.89
66873;HTU21D;53781;51.090;5.884;2022-12-18T01:30:04;-3.60;71.89
66873;HTU21D;53781;51.090;5.884;2022-12-18T01:30:19;-3.61;71.82
66873;HTU21D;53781;51.090;5.884;2022-12-18T01:30:34;-3.58;71.85
66873;HTU21D;53781;51.090;5.884;2022-12-18T01:30:49;-3.60;71.71
66873;HTU21D;53781;51.090;5.884;2022-12-18T01:31:11;-3.60;71.77
66873;HTU21D;53781;51.090;5.884;2022-12-18T01:31:29;-3.63;71.73
66873;HTU21D;53781;51.090;5.884;2022-12-18T01:31:44;-3.64;71.75
66873;HTU21D;53781;51.090;5.884;2022-12-18T01:31:58;-3.63;71.67
66873;HTU21D;53781;51.090;5.884;2022-12-18T01:32:13;-3.62;71.69
66873;HTU21D;53781;51.090;5.884;2022-12-18T01:32:31;-3.65;71.76
66873;HTU21D;53781;51.090;5.884;2022-12-18T01:32:46;-3.64;71.68
66873;HTU21D;53781;51.090;5.884;2022-12-18T01:33:00;-3.64;71.73
66873;HTU21D;53781;51.090;5.884;2022-12-18T01:33:15;-3.65;71.71
66873;HTU21D;53781;51.090;5.884;2022-12-18T01:33:30;-3.63;71.67
66873;HTU21D;53781;51.090;5.884;2022-12-18T01:33:45;-3.65;71.61
66873;HTU21D;53781;51.090;5.884;2022-12-18T01:34:01;-3.64;71.69
66873;HTU21D;53781;51.090;5.884;2022-12-18T01:34:16;-3.68;71.60
66873;HTU21D;53781;51.090;5.884;2022-12-18T01:34:31;-3.66;71.69
66873;HTU21D;53781;51.090;5.884;2022-12-18T01:34:45;-3.67;71.66
66873;HTU21D;53781;51.090;5.884;2022-12-18T01:35:00;-3.65;71.58
66873;HTU21D;53781;51.090;5.884;2022-12-18T01:35:15;-3.68;71.58
66873;HTU21D;53781;51.090;5.884;2022-12-18T01:35:30;-3.66;71.58
66873;HTU21D;53781;51.090;5.884;2022-12-18T01:35:45;-3.69;71.48
66873;HTU21D;53781;51.090;5.884;2022-12-18T01:36:00;-3.67;71.55
66873;HTU21D;53781;51.090;5.884;2022-12-18T01:36:23;-3.68;71.52
66873;HTU21D;53781;51.090;5.884;2022-12-18T01:36:38;-3.68;71.51
66873;HTU21D;53781;51.090;5.884;2022-12-18T01:36:56;-3.69;71.50
66873;HTU21D;53781;51.090;5.884;2022-12-18T01:37:11;-3.70;71.50
66873;HTU21D;53781;51.090;5.884;2022-12-18T01:37:25;-3.69;71.54